BCS2886 EBBR-EIDW
Flight info
| Callsign | BCS2886 |
|---|---|
| Flight time | 1h 15m |
| Altitude | 32000 |
| Route | DENUT L610 KOPUL Q60 OKSAW DCT TEWXI DCT LANON L18 ABLIN |
| Aircraft | B738/M-SDE2E3FGHIRWXY/LB1 |
Departure
| Time | 2026-05-04 23:38 |
|---|---|
| Airport | Brussels Airport (EBBR) |
Arrival
| Time | 2026-05-05 00:53 |
|---|---|
| Airport | Dublin Airport (EIDW) |
| Time | Latitude | Longitude | Altitude | Speed | Heading |
|---|---|---|---|---|---|
| 2026-05-04 23:19 | 50.90237 | 4.45534 | 125 ft | 0 kts | 335° |
| 2026-05-04 23:28 | 50.90236 | 4.45535 | 125 ft | 2 kts | 335° |
| 2026-05-04 23:28 | 50.90221 | 4.45546 | 128 ft | 2 kts | 334° |
| 2026-05-04 23:28 | 50.90206 | 4.45558 | 126 ft | 2 kts | 331° |
| 2026-05-04 23:29 | 50.90192 | 4.45571 | 128 ft | 2 kts | 328° |
| 2026-05-04 23:29 | 50.90178 | 4.45586 | 126 ft | 2 kts | 322° |
| 2026-05-04 23:29 | 50.90166 | 4.45604 | 132 ft | 2 kts | 309° |
| 2026-05-04 23:29 | 50.90158 | 4.45626 | 132 ft | 2 kts | 281° |
| 2026-05-04 23:30 | 50.90158 | 4.45650 | 132 ft | 2 kts | 250° |
| 2026-05-04 23:30 | 50.90160 | 4.45657 | 132 ft | 0 kts | 246° |
| 2026-05-04 23:31 | 50.90155 | 4.45639 | 132 ft | 4 kts | 243° |
| 2026-05-04 23:31 | 50.90136 | 4.45573 | 132 ft | 9 kts | 245° |
| 2026-05-04 23:31 | 50.90074 | 4.45532 | 134 ft | 11 kts | 167° |
| 2026-05-04 23:32 | 50.89994 | 4.45585 | 135 ft | 14 kts | 155° |
| 2026-05-04 23:32 | 50.89886 | 4.45657 | 135 ft | 19 kts | 167° |
| 2026-05-04 23:32 | 50.89771 | 4.45718 | 134 ft | 11 kts | 118° |
| 2026-05-04 23:32 | 50.89788 | 4.45829 | 132 ft | 13 kts | 65° |
| 2026-05-04 23:33 | 50.89834 | 4.45993 | 124 ft | 20 kts | 66° |
| 2026-05-04 23:33 | 50.89897 | 4.46210 | 123 ft | 24 kts | 64° |
| 2026-05-04 23:33 | 50.89972 | 4.46470 | 123 ft | 27 kts | 65° |
| 2026-05-04 23:33 | 50.90056 | 4.46760 | 121 ft | 30 kts | 65° |
| 2026-05-04 23:34 | 50.90140 | 4.47053 | 121 ft | 27 kts | 65° |
| 2026-05-04 23:34 | 50.90222 | 4.47337 | 119 ft | 30 kts | 65° |
| 2026-05-04 23:34 | 50.90300 | 4.47602 | 118 ft | 28 kts | 64° |
| 2026-05-04 23:34 | 50.90382 | 4.47892 | 119 ft | 28 kts | 64° |
| 2026-05-04 23:35 | 50.90466 | 4.48177 | 122 ft | 28 kts | 65° |
| 2026-05-04 23:35 | 50.90553 | 4.48481 | 116 ft | 31 kts | 65° |
| 2026-05-04 23:35 | 50.90648 | 4.48804 | 112 ft | 32 kts | 65° |
| 2026-05-04 23:35 | 50.90732 | 4.49103 | 111 ft | 29 kts | 65° |
| 2026-05-04 23:36 | 50.90808 | 4.49366 | 112 ft | 27 kts | 65° |
| 2026-05-04 23:36 | 50.90887 | 4.49637 | 110 ft | 25 kts | 65° |
| 2026-05-04 23:36 | 50.90974 | 4.49852 | 109 ft | 22 kts | 39° |
| 2026-05-04 23:36 | 50.91109 | 4.49937 | 103 ft | 16 kts | 349° |
| 2026-05-04 23:37 | 50.91132 | 4.49863 | 105 ft | 7 kts | 254° |
| 2026-05-04 23:37 | 50.91081 | 4.49682 | 108 ft | 45 kts | 245° |
| 2026-05-04 23:37 | 50.90847 | 4.48868 | 110 ft | 115 kts | 245° |
| 2026-05-04 23:37 | 50.90460 | 4.47448 | 187 ft | 161 kts | 250° |
| 2026-05-04 23:38 | 50.90024 | 4.45797 | 856 ft | 161 kts | 248° |
| 2026-05-04 23:38 | 50.89423 | 4.44199 | 1408 ft | 176 kts | 244° |
| 2026-05-04 23:38 | 50.89309 | 4.42177 | 1664 ft | 201 kts | 295° |
| 2026-05-04 23:38 | 50.90066 | 4.40181 | 1934 ft | 226 kts | 303° |
| 2026-05-04 23:39 | 50.90844 | 4.37842 | 2260 ft | 251 kts | 299° |
| 2026-05-04 23:39 | 50.91640 | 4.35337 | 2987 ft | 257 kts | 298° |
| 2026-05-04 23:39 | 50.92178 | 4.32626 | 3786 ft | 263 kts | 280° |
| 2026-05-04 23:39 | 50.92414 | 4.29742 | 4607 ft | 265 kts | 282° |
| 2026-05-04 23:40 | 50.93159 | 4.27104 | 5350 ft | 265 kts | 308° |
| 2026-05-04 23:40 | 50.94282 | 4.24821 | 6145 ft | 268 kts | 310° |
| 2026-05-04 23:40 | 50.95472 | 4.22470 | 6927 ft | 271 kts | 310° |
| 2026-05-04 23:40 | 50.96645 | 4.20160 | 7734 ft | 274 kts | 310° |
| 2026-05-04 23:41 | 50.97847 | 4.17784 | 8548 ft | 277 kts | 310° |
| 2026-05-04 23:41 | 50.99060 | 4.15377 | 9367 ft | 282 kts | 309° |
| 2026-05-04 23:41 | 51.00289 | 4.12929 | 10173 ft | 286 kts | 309° |
| 2026-05-04 23:41 | 51.01572 | 4.10366 | 10518 ft | 309 kts | 309° |
| 2026-05-04 23:42 | 51.02960 | 4.07588 | 10828 ft | 329 kts | 309° |
| 2026-05-04 23:42 | 51.04394 | 4.04708 | 11498 ft | 336 kts | 309° |
| 2026-05-04 23:42 | 51.05855 | 4.01768 | 12309 ft | 340 kts | 309° |
| 2026-05-04 23:42 | 51.07328 | 3.98802 | 13117 ft | 345 kts | 309° |
| 2026-05-04 23:43 | 51.08824 | 3.95785 | 13891 ft | 350 kts | 309° |
| 2026-05-04 23:43 | 51.10341 | 3.92720 | 14649 ft | 354 kts | 309° |
| 2026-05-04 23:43 | 51.11868 | 3.89633 | 15469 ft | 357 kts | 308° |
| 2026-05-04 23:43 | 51.13411 | 3.86508 | 16258 ft | 361 kts | 308° |
| 2026-05-04 23:44 | 51.14972 | 3.83344 | 17034 ft | 365 kts | 308° |
| 2026-05-04 23:44 | 51.16546 | 3.80150 | 17812 ft | 369 kts | 308° |
| 2026-05-04 23:44 | 51.18139 | 3.76914 | 18543 ft | 373 kts | 308° |
| 2026-05-04 23:44 | 51.19741 | 3.73656 | 19257 ft | 375 kts | 308° |
| 2026-05-04 23:45 | 51.21345 | 3.70390 | 20014 ft | 375 kts | 308° |
| 2026-05-04 23:45 | 51.22940 | 3.67069 | 20712 ft | 378 kts | 303° |
| 2026-05-04 23:45 | 51.24028 | 3.63252 | 21342 ft | 381 kts | 284° |
| 2026-05-04 23:45 | 51.24604 | 3.59124 | 22076 ft | 382 kts | 281° |
| 2026-05-04 23:46 | 51.25116 | 3.54926 | 22659 ft | 387 kts | 281° |
| 2026-05-04 23:46 | 51.25634 | 3.50710 | 23344 ft | 389 kts | 281° |
| 2026-05-04 23:46 | 51.26179 | 3.46459 | 23896 ft | 392 kts | 281° |
| 2026-05-04 23:46 | 51.26742 | 3.42174 | 24366 ft | 396 kts | 281° |
| 2026-05-04 23:47 | 51.27309 | 3.37861 | 24903 ft | 398 kts | 281° |
| 2026-05-04 23:47 | 51.27874 | 3.33509 | 25345 ft | 403 kts | 280° |
| 2026-05-04 23:47 | 51.28440 | 3.29106 | 25811 ft | 406 kts | 280° |
| 2026-05-04 23:47 | 51.29007 | 3.24676 | 26333 ft | 408 kts | 280° |
| 2026-05-04 23:48 | 51.29572 | 3.20239 | 26965 ft | 406 kts | 279° |
| 2026-05-04 23:48 | 51.30134 | 3.15818 | 27567 ft | 406 kts | 279° |
| 2026-05-04 23:48 | 51.30696 | 3.11394 | 28154 ft | 406 kts | 279° |
| 2026-05-04 23:48 | 51.31257 | 3.06970 | 28791 ft | 405 kts | 279° |
| 2026-05-04 23:49 | 51.31811 | 3.02587 | 29407 ft | 404 kts | 279° |
| 2026-05-04 23:49 | 51.32367 | 2.98170 | 30016 ft | 403 kts | 278° |
| 2026-05-04 23:49 | 51.32918 | 2.93775 | 30551 ft | 402 kts | 278° |
| 2026-05-04 23:49 | 51.33464 | 2.89417 | 31144 ft | 398 kts | 278° |
| 2026-05-04 23:50 | 51.34004 | 2.85090 | 31739 ft | 395 kts | 278° |
| 2026-05-04 23:50 | 51.34540 | 2.80780 | 31993 ft | 397 kts | 278° |
| 2026-05-04 23:50 | 51.35603 | 2.72180 | 31997 ft | 394 kts | 278° |
| 2026-05-04 23:51 | 51.36589 | 2.64190 | 32006 ft | 394 kts | 278° |
| 2026-05-04 23:51 | 51.37646 | 2.55579 | 32002 ft | 394 kts | 278° |
| 2026-05-04 23:52 | 51.38695 | 2.46974 | 32005 ft | 394 kts | 278° |
| 2026-05-04 23:52 | 51.39739 | 2.38357 | 32011 ft | 394 kts | 278° |
| 2026-05-04 23:53 | 51.40777 | 2.29745 | 32010 ft | 394 kts | 278° |
| 2026-05-04 23:53 | 51.41825 | 2.21147 | 32010 ft | 394 kts | 279° |
| 2026-05-04 23:54 | 51.43286 | 2.12670 | 32017 ft | 395 kts | 284° |
| 2026-05-04 23:54 | 51.44908 | 2.04262 | 32013 ft | 395 kts | 284° |
| 2026-05-04 23:55 | 51.46494 | 1.95900 | 32020 ft | 395 kts | 283° |
| 2026-05-04 23:56 | 51.48830 | 1.83228 | 32026 ft | 395 kts | 283° |
| 2026-05-04 23:56 | 51.50368 | 1.74760 | 32025 ft | 396 kts | 283° |
| 2026-05-04 23:57 | 51.51901 | 1.66276 | 32025 ft | 396 kts | 283° |
| 2026-05-04 23:57 | 51.53430 | 1.57768 | 32027 ft | 397 kts | 283° |
| 2026-05-04 23:58 | 51.54958 | 1.49226 | 32029 ft | 398 kts | 283° |
| 2026-05-04 23:58 | 51.56233 | 1.42069 | 32029 ft | 398 kts | 283° |
| 2026-05-04 23:59 | 51.57743 | 1.33553 | 32033 ft | 399 kts | 283° |
| 2026-05-04 23:59 | 51.59261 | 1.24956 | 32035 ft | 400 kts | 283° |
| 2026-05-05 00:00 | 51.60774 | 1.16344 | 32037 ft | 401 kts | 283° |
| 2026-05-05 00:00 | 51.62285 | 1.07704 | 32037 ft | 401 kts | 283° |
| 2026-05-05 00:01 | 51.63790 | 0.99051 | 32037 ft | 402 kts | 283° |
| 2026-05-05 00:01 | 51.65292 | 0.90380 | 32038 ft | 402 kts | 283° |
| 2026-05-05 00:02 | 51.66786 | 0.81708 | 32042 ft | 402 kts | 283° |
| 2026-05-05 00:02 | 51.68273 | 0.73030 | 32041 ft | 402 kts | 283° |
| 2026-05-05 00:03 | 51.69754 | 0.64349 | 32043 ft | 401 kts | 283° |
| 2026-05-05 00:03 | 51.71228 | 0.55664 | 32047 ft | 401 kts | 283° |
| 2026-05-05 00:04 | 51.72694 | 0.46986 | 32038 ft | 401 kts | 283° |
| 2026-05-05 00:04 | 51.74148 | 0.38331 | 32047 ft | 401 kts | 283° |
| 2026-05-05 00:05 | 51.75603 | 0.29629 | 32056 ft | 401 kts | 283° |
| 2026-05-05 00:05 | 51.77050 | 0.20928 | 32052 ft | 401 kts | 283° |
| 2026-05-05 00:06 | 51.78492 | 0.12221 | 32048 ft | 401 kts | 283° |
| 2026-05-05 00:06 | 51.79927 | 0.03506 | 32049 ft | 402 kts | 283° |
| 2026-05-05 00:07 | 51.81356 | -0.05221 | 32052 ft | 402 kts | 283° |
| 2026-05-05 00:07 | 51.82780 | -0.13955 | 32052 ft | 402 kts | 283° |
| 2026-05-05 00:08 | 51.84196 | -0.22692 | 32042 ft | 402 kts | 283° |
| 2026-05-05 00:08 | 51.85606 | -0.31434 | 32055 ft | 402 kts | 283° |
| 2026-05-05 00:09 | 51.87008 | -0.40169 | 32056 ft | 401 kts | 283° |
| 2026-05-05 00:09 | 51.88403 | -0.48909 | 32055 ft | 401 kts | 283° |
| 2026-05-05 00:10 | 51.89793 | -0.57667 | 32055 ft | 401 kts | 283° |
| 2026-05-05 00:10 | 51.91175 | -0.66419 | 32042 ft | 401 kts | 283° |
| 2026-05-05 00:11 | 51.92542 | -0.75117 | 32055 ft | 401 kts | 283° |
| 2026-05-05 00:11 | 51.93910 | -0.83878 | 32049 ft | 401 kts | 283° |
| 2026-05-05 00:12 | 51.95271 | -0.92631 | 32044 ft | 401 kts | 283° |
| 2026-05-05 00:12 | 51.96626 | -1.01396 | 32049 ft | 401 kts | 283° |
| 2026-05-05 00:13 | 51.97975 | -1.10171 | 32041 ft | 401 kts | 283° |
| 2026-05-05 00:13 | 51.99316 | -1.18943 | 32041 ft | 400 kts | 283° |
| 2026-05-05 00:14 | 52.00650 | -1.27712 | 32051 ft | 400 kts | 283° |
| 2026-05-05 00:14 | 52.01978 | -1.36492 | 32043 ft | 401 kts | 283° |
| 2026-05-05 00:15 | 52.03298 | -1.45273 | 32044 ft | 401 kts | 283° |
| 2026-05-05 00:15 | 52.04616 | -1.54082 | 32048 ft | 401 kts | 283° |
| 2026-05-05 00:16 | 52.05928 | -1.62900 | 32054 ft | 402 kts | 283° |
| 2026-05-05 00:16 | 52.07232 | -1.71718 | 32051 ft | 402 kts | 283° |
| 2026-05-05 00:17 | 52.08535 | -1.80579 | 32058 ft | 403 kts | 283° |
| 2026-05-05 00:17 | 52.09832 | -1.89445 | 32064 ft | 403 kts | 283° |
| 2026-05-05 00:18 | 52.11121 | -1.98314 | 32061 ft | 403 kts | 283° |
| 2026-05-05 00:18 | 52.12407 | -2.07206 | 32067 ft | 404 kts | 283° |
| 2026-05-05 00:19 | 52.13686 | -2.16104 | 32069 ft | 404 kts | 283° |
| 2026-05-05 00:19 | 52.14960 | -2.25024 | 32069 ft | 405 kts | 283° |
| 2026-05-05 00:20 | 52.16230 | -2.33962 | 32061 ft | 406 kts | 283° |
| 2026-05-05 00:20 | 52.17497 | -2.42931 | 32066 ft | 406 kts | 283° |
| 2026-05-05 00:21 | 52.18758 | -2.51918 | 32065 ft | 407 kts | 283° |
| 2026-05-05 00:21 | 52.20016 | -2.60931 | 32069 ft | 408 kts | 283° |
| 2026-05-05 00:22 | 52.21253 | -2.69908 | 32067 ft | 409 kts | 283° |
| 2026-05-05 00:22 | 52.22493 | -2.78971 | 32063 ft | 410 kts | 283° |
| 2026-05-05 00:23 | 52.23737 | -2.88054 | 32071 ft | 411 kts | 283° |
| 2026-05-05 00:23 | 52.24982 | -2.97166 | 32069 ft | 412 kts | 283° |
| 2026-05-05 00:24 | 52.26222 | -3.06310 | 32067 ft | 413 kts | 283° |
| 2026-05-05 00:24 | 52.27457 | -3.15482 | 32076 ft | 414 kts | 283° |
| 2026-05-05 00:25 | 52.28689 | -3.24687 | 32071 ft | 416 kts | 283° |
| 2026-05-05 00:25 | 52.29917 | -3.33933 | 32073 ft | 416 kts | 283° |
| 2026-05-05 00:26 | 52.31138 | -3.43188 | 32069 ft | 417 kts | 283° |
| 2026-05-05 00:26 | 52.32353 | -3.52458 | 32072 ft | 418 kts | 283° |
| 2026-05-05 00:27 | 52.33565 | -3.61764 | 31904 ft | 420 kts | 283° |
| 2026-05-05 00:27 | 52.34170 | -3.66431 | 31531 ft | 418 kts | 283° |
| 2026-05-05 00:27 | 52.34768 | -3.71065 | 31124 ft | 415 kts | 283° |
| 2026-05-05 00:27 | 52.35360 | -3.75668 | 30737 ft | 411 kts | 283° |
| 2026-05-05 00:28 | 52.35946 | -3.80235 | 30349 ft | 408 kts | 283° |
| 2026-05-05 00:28 | 52.36525 | -3.84760 | 29931 ft | 406 kts | 283° |
| 2026-05-05 00:28 | 52.37099 | -3.89260 | 29501 ft | 402 kts | 283° |
| 2026-05-05 00:28 | 52.37666 | -3.93719 | 29103 ft | 397 kts | 283° |
| 2026-05-05 00:29 | 52.38223 | -3.98116 | 28712 ft | 393 kts | 282° |
| 2026-05-05 00:29 | 52.38774 | -4.02477 | 28314 ft | 389 kts | 282° |
| 2026-05-05 00:29 | 52.39318 | -4.06794 | 27922 ft | 385 kts | 282° |
| 2026-05-05 00:29 | 52.39854 | -4.11062 | 27537 ft | 381 kts | 282° |
| 2026-05-05 00:30 | 52.40385 | -4.15302 | 27139 ft | 378 kts | 282° |
| 2026-05-05 00:30 | 52.40909 | -4.19498 | 26762 ft | 374 kts | 282° |
| 2026-05-05 00:30 | 52.41428 | -4.23657 | 26386 ft | 372 kts | 281° |
| 2026-05-05 00:30 | 52.41940 | -4.27789 | 26003 ft | 369 kts | 281° |
| 2026-05-05 00:31 | 52.42448 | -4.31888 | 25631 ft | 366 kts | 282° |
| 2026-05-05 00:31 | 52.43223 | -4.35835 | 25246 ft | 364 kts | 294° |
| 2026-05-05 00:31 | 52.44447 | -4.39445 | 24888 ft | 361 kts | 304° |
| 2026-05-05 00:31 | 52.46040 | -4.42605 | 24533 ft | 359 kts | 311° |
| 2026-05-05 00:32 | 52.47747 | -4.45576 | 24168 ft | 357 kts | 313° |
| 2026-05-05 00:32 | 52.49441 | -4.48465 | 23794 ft | 355 kts | 313° |
| 2026-05-05 00:32 | 52.51145 | -4.51379 | 23396 ft | 353 kts | 312° |
| 2026-05-05 00:32 | 52.52824 | -4.54298 | 22975 ft | 351 kts | 312° |
| 2026-05-05 00:33 | 52.54490 | -4.57198 | 22582 ft | 348 kts | 312° |
| 2026-05-05 00:33 | 52.56161 | -4.60117 | 22218 ft | 344 kts | 312° |
| 2026-05-05 00:33 | 52.57772 | -4.62937 | 21848 ft | 342 kts | 312° |
| 2026-05-05 00:33 | 52.59392 | -4.65781 | 21483 ft | 339 kts | 312° |
| 2026-05-05 00:34 | 52.61000 | -4.68609 | 21123 ft | 338 kts | 313° |
| 2026-05-05 00:34 | 52.62602 | -4.71431 | 20765 ft | 338 kts | 312° |
| 2026-05-05 00:34 | 52.64204 | -4.74263 | 20410 ft | 338 kts | 313° |
| 2026-05-05 00:34 | 52.65806 | -4.77095 | 20043 ft | 337 kts | 313° |
| 2026-05-05 00:35 | 52.67405 | -4.79927 | 19599 ft | 338 kts | 312° |
| 2026-05-05 00:35 | 52.69005 | -4.82765 | 19167 ft | 338 kts | 312° |
| 2026-05-05 00:35 | 52.70605 | -4.85605 | 18724 ft | 339 kts | 312° |
| 2026-05-05 00:35 | 52.72212 | -4.88462 | 18272 ft | 339 kts | 312° |
| 2026-05-05 00:36 | 52.73815 | -4.91312 | 17769 ft | 339 kts | 312° |
| 2026-05-05 00:36 | 52.75420 | -4.94169 | 17294 ft | 339 kts | 312° |
| 2026-05-05 00:36 | 52.77016 | -4.97016 | 16833 ft | 337 kts | 312° |
| 2026-05-05 00:36 | 52.78606 | -4.99855 | 16390 ft | 336 kts | 311° |
| 2026-05-05 00:37 | 52.80191 | -5.02688 | 15950 ft | 334 kts | 311° |
| 2026-05-05 00:37 | 52.81765 | -5.05506 | 15511 ft | 333 kts | 311° |
| 2026-05-05 00:37 | 52.83325 | -5.08301 | 15072 ft | 331 kts | 311° |
| 2026-05-05 00:37 | 52.84889 | -5.11107 | 14650 ft | 330 kts | 311° |
| 2026-05-05 00:38 | 52.86440 | -5.13894 | 14225 ft | 329 kts | 311° |
| 2026-05-05 00:38 | 52.87970 | -5.16660 | 13767 ft | 321 kts | 311° |
| 2026-05-05 00:38 | 52.89452 | -5.19344 | 13310 ft | 311 kts | 311° |
| 2026-05-05 00:38 | 52.90888 | -5.21927 | 12885 ft | 301 kts | 311° |
| 2026-05-05 00:39 | 52.92294 | -5.24452 | 12496 ft | 294 kts | 311° |
| 2026-05-05 00:39 | 52.93679 | -5.26944 | 12118 ft | 294 kts | 311° |
| 2026-05-05 00:39 | 52.95063 | -5.29437 | 11729 ft | 294 kts | 311° |
| 2026-05-05 00:39 | 52.96445 | -5.31933 | 11348 ft | 293 kts | 311° |
| 2026-05-05 00:40 | 52.97820 | -5.34424 | 10961 ft | 293 kts | 311° |
| 2026-05-05 00:40 | 52.99196 | -5.36920 | 10573 ft | 293 kts | 312° |
| 2026-05-05 00:40 | 53.00569 | -5.39413 | 10196 ft | 292 kts | 312° |
| 2026-05-05 00:40 | 53.01930 | -5.41885 | 10014 ft | 284 kts | 312° |
| 2026-05-05 00:41 | 53.02797 | -5.43461 | 10012 ft | 275 kts | 312° |
| 2026-05-05 00:41 | 53.04547 | -5.46647 | 9135 ft | 287 kts | 312° |
| 2026-05-05 00:41 | 53.05918 | -5.49143 | 8664 ft | 289 kts | 312° |
| 2026-05-05 00:41 | 53.07437 | -5.51304 | 8251 ft | 288 kts | 325° |
| 2026-05-05 00:42 | 53.08558 | -5.52486 | 8006 ft | 287 kts | 328° |
| 2026-05-05 00:42 | 53.10816 | -5.54752 | 7497 ft | 286 kts | 328° |
| 2026-05-05 00:42 | 53.11962 | -5.55920 | 7241 ft | 285 kts | 327° |
| 2026-05-05 00:42 | 53.14143 | -5.58165 | 7091 ft | 270 kts | 327° |
| 2026-05-05 00:43 | 53.15204 | -5.59274 | 7084 ft | 261 kts | 327° |
| 2026-05-05 00:43 | 53.17178 | -5.61352 | 7079 ft | 249 kts | 326° |
| 2026-05-05 00:43 | 53.18630 | -5.62887 | 7080 ft | 244 kts | 326° |
| 2026-05-05 00:43 | 53.20029 | -5.64400 | 7040 ft | 237 kts | 322° |
| 2026-05-05 00:44 | 53.21285 | -5.66126 | 6812 ft | 235 kts | 317° |
| 2026-05-05 00:44 | 53.22494 | -5.67946 | 6607 ft | 232 kts | 316° |
| 2026-05-05 00:44 | 53.23690 | -5.69762 | 6310 ft | 233 kts | 316° |
| 2026-05-05 00:44 | 53.24883 | -5.71562 | 6085 ft | 230 kts | 317° |
| 2026-05-05 00:45 | 53.26064 | -5.73337 | 5853 ft | 227 kts | 317° |
| 2026-05-05 00:45 | 53.27236 | -5.75091 | 5637 ft | 225 kts | 317° |
| 2026-05-05 00:45 | 53.28394 | -5.76818 | 5433 ft | 222 kts | 317° |
| 2026-05-05 00:45 | 53.29540 | -5.78526 | 5223 ft | 221 kts | 317° |
| 2026-05-05 00:46 | 53.30304 | -5.79663 | 5106 ft | 223 kts | 317° |
| 2026-05-05 00:46 | 53.31472 | -5.81402 | 4906 ft | 226 kts | 317° |
| 2026-05-05 00:46 | 53.32646 | -5.83149 | 4692 ft | 226 kts | 317° |
| 2026-05-05 00:46 | 53.33816 | -5.84890 | 4473 ft | 225 kts | 317° |
| 2026-05-05 00:47 | 53.34979 | -5.86620 | 4261 ft | 223 kts | 317° |
| 2026-05-05 00:47 | 53.36134 | -5.88340 | 4055 ft | 221 kts | 318° |
| 2026-05-05 00:47 | 53.37263 | -5.90024 | 3930 ft | 211 kts | 318° |
| 2026-05-05 00:47 | 53.38323 | -5.91606 | 3844 ft | 197 kts | 318° |
| 2026-05-05 00:48 | 53.39303 | -5.93070 | 3810 ft | 181 kts | 318° |
| 2026-05-05 00:48 | 53.39976 | -5.94698 | 3759 ft | 165 kts | 284° |
| 2026-05-05 00:48 | 53.40213 | -5.96612 | 3614 ft | 173 kts | 283° |
| 2026-05-05 00:48 | 53.40466 | -5.98560 | 3403 ft | 171 kts | 283° |
| 2026-05-05 00:49 | 53.40664 | -6.00515 | 3175 ft | 168 kts | 277° |
| 2026-05-05 00:49 | 53.40797 | -6.02437 | 2947 ft | 164 kts | 278° |
| 2026-05-05 00:49 | 53.40910 | -6.04306 | 2725 ft | 158 kts | 277° |
| 2026-05-05 00:49 | 53.41007 | -6.06086 | 2533 ft | 148 kts | 277° |
| 2026-05-05 00:50 | 53.41097 | -6.07787 | 2317 ft | 147 kts | 277° |
| 2026-05-05 00:50 | 53.41185 | -6.09460 | 2131 ft | 143 kts | 277° |
| 2026-05-05 00:50 | 53.41273 | -6.11108 | 1927 ft | 142 kts | 277° |
| 2026-05-05 00:50 | 53.41362 | -6.12762 | 1741 ft | 143 kts | 273° |
| 2026-05-05 00:51 | 53.41420 | -6.14424 | 1530 ft | 142 kts | 278° |
| 2026-05-05 00:51 | 53.41541 | -6.16063 | 1342 ft | 142 kts | 274° |
| 2026-05-05 00:51 | 53.41618 | -6.17714 | 1135 ft | 142 kts | 276° |
| 2026-05-05 00:51 | 53.41718 | -6.19361 | 936 ft | 142 kts | 276° |
| 2026-05-05 00:52 | 53.41802 | -6.20991 | 730 ft | 139 kts | 277° |
| 2026-05-05 00:52 | 53.41891 | -6.22595 | 533 ft | 137 kts | 277° |
| 2026-05-05 00:52 | 53.41980 | -6.24185 | 347 ft | 137 kts | 276° |
| 2026-05-05 00:52 | 53.42068 | -6.25754 | 221 ft | 130 kts | 272° |
| 2026-05-05 00:53 | 53.42128 | -6.26907 | 227 ft | 69 kts | 276° |
| 2026-05-05 00:53 | 53.42155 | -6.27420 | 229 ft | 34 kts | 275° |
| 2026-05-05 00:53 | 53.42181 | -6.27729 | 231 ft | 20 kts | 288° |
| 2026-05-05 00:53 | 53.42234 | -6.27938 | 229 ft | 19 kts | 299° |
| 2026-05-05 00:54 | 53.42308 | -6.28120 | 226 ft | 18 kts | 333° |
| 2026-05-05 00:54 | 53.42364 | -6.28075 | 224 ft | 7 kts | 86° |
| 2026-05-05 00:54 | 53.42361 | -6.27998 | 224 ft | 7 kts | 93° |
| 2026-05-05 00:54 | 53.42359 | -6.27923 | 224 ft | 6 kts | 93° |
| 2026-05-05 00:55 | 53.42355 | -6.27846 | 224 ft | 7 kts | 96° |
| 2026-05-05 00:55 | 53.42346 | -6.27742 | 224 ft | 11 kts | 97° |
| 2026-05-05 00:55 | 53.42337 | -6.27573 | 224 ft | 18 kts | 95° |
| 2026-05-05 00:55 | 53.42324 | -6.27335 | 224 ft | 23 kts | 95° |
| 2026-05-05 00:56 | 53.42308 | -6.27039 | 224 ft | 28 kts | 95° |
| 2026-05-05 00:56 | 53.42289 | -6.26693 | 224 ft | 32 kts | 96° |
| 2026-05-05 00:56 | 53.42267 | -6.26313 | 224 ft | 31 kts | 95° |
| 2026-05-05 00:56 | 53.42343 | -6.26025 | 224 ft | 27 kts | 45° |
| 2026-05-05 00:57 | 53.42444 | -6.25876 | 224 ft | 14 kts | 12° |
| 2026-05-05 00:57 | 53.42499 | -6.25960 | 226 ft | 9 kts | 272° |
| 2026-05-05 00:57 | 53.42464 | -6.26025 | 224 ft | 8 kts | 221° |
| 2026-05-05 00:57 | 53.42429 | -6.26090 | 224 ft | 6 kts | 225° |
| 2026-05-05 00:58 | 53.42427 | -6.26093 | 224 ft | 0 kts | 225° |